createdAt,value
2018-01-13T00:01:27.067Z,5.80
2018-01-13T00:06:28.478Z,5.80
2018-01-13T00:11:29.716Z,5.80
2018-01-13T00:16:31.302Z,5.80
2018-01-13T00:21:34.554Z,5.80
2018-01-13T00:26:35.610Z,5.80
2018-01-13T00:31:37.478Z,5.60
2018-01-13T00:36:39.069Z,5.60
2018-01-13T00:41:40.414Z,5.60
2018-01-13T00:46:41.657Z,5.50
2018-01-13T00:51:43.001Z,5.60
2018-01-13T00:56:44.306Z,5.60
2018-01-13T01:01:45.558Z,5.50
2018-01-13T01:06:46.801Z,5.50
2018-01-13T01:11:48.036Z,5.30
2018-01-13T01:16:50.411Z,5.30
2018-01-13T01:21:55.946Z,5.10
2018-01-13T01:26:58.260Z,5.10
2018-01-13T01:32:00.446Z,5.20
2018-01-13T01:37:02.183Z,5.20
2018-01-13T01:42:03.520Z,5.10
2018-01-13T01:47:05.771Z,5.00
2018-01-13T01:52:07.697Z,4.90
2018-01-13T01:57:10.748Z,4.80
2018-01-13T02:02:12.374Z,4.90
2018-01-13T02:07:13.559Z,5.00
2018-01-13T02:12:14.962Z,5.00
2018-01-13T02:17:16.355Z,5.00
2018-01-13T02:22:18.644Z,4.80
2018-01-13T02:27:20.078Z,4.70
2018-01-13T02:32:21.206Z,4.70
2018-01-13T02:37:22.349Z,4.50
2018-01-13T02:42:23.811Z,4.50
2018-01-13T02:47:24.931Z,4.50
2018-01-13T02:52:26.256Z,4.30
2018-01-13T02:57:27.809Z,4.40
2018-01-13T03:02:29.196Z,4.40
2018-01-13T03:07:30.594Z,4.40
2018-01-13T03:12:32.605Z,4.50
2018-01-13T03:17:34.146Z,4.50
2018-01-13T03:22:36.504Z,4.60
2018-01-13T03:27:38.911Z,4.60
2018-01-13T03:32:40.790Z,4.70
2018-01-13T03:37:42.793Z,4.70
2018-01-13T03:42:44.446Z,4.60
2018-01-13T03:47:45.808Z,4.70
2018-01-13T03:52:48.037Z,4.70
2018-01-13T03:57:49.290Z,4.70
2018-01-13T04:02:50.820Z,4.70
2018-01-13T04:07:52.176Z,4.60
2018-01-13T04:12:53.697Z,4.70
2018-01-13T04:17:55.009Z,4.60
2018-01-13T04:22:56.864Z,4.60
2018-01-13T04:27:59.174Z,4.60
2018-01-13T04:33:00.515Z,4.50
2018-01-13T04:38:03.124Z,4.50
2018-01-13T04:43:04.368Z,4.50
2018-01-13T04:48:05.819Z,4.50
2018-01-13T04:53:06.954Z,4.50
2018-01-13T04:58:08.895Z,4.40
2018-01-13T05:03:10.034Z,4.30
2018-01-13T05:08:11.300Z,4.40
2018-01-13T05:13:12.572Z,4.50
2018-01-13T05:18:13.639Z,4.40
2018-01-13T05:23:15.609Z,4.50
2018-01-13T05:28:18.128Z,4.40
2018-01-13T05:33:19.229Z,4.60
2018-01-13T05:38:20.553Z,4.60
2018-01-13T05:43:21.766Z,4.60
2018-01-13T05:48:23.209Z,4.60
2018-01-13T05:53:24.712Z,4.70
2018-01-13T05:58:26.164Z,4.70
2018-01-13T06:03:27.363Z,4.70
2018-01-13T06:08:28.905Z,4.70
2018-01-13T06:13:30.378Z,4.60
2018-01-13T06:18:32.273Z,4.60
2018-01-13T06:23:33.875Z,4.60
2018-01-13T06:28:35.784Z,4.70
2018-01-13T06:33:37.162Z,4.60
2018-01-13T06:38:38.516Z,4.80
2018-01-13T06:43:39.658Z,4.80
2018-01-13T06:48:41.952Z,4.80
2018-01-13T06:53:43.170Z,4.70
2018-01-13T06:58:44.559Z,4.80
2018-01-13T07:03:45.811Z,4.80
2018-01-13T07:08:46.974Z,4.70
2018-01-13T07:13:48.195Z,4.80
2018-01-13T07:18:49.528Z,4.80
2018-01-13T07:23:51.799Z,4.80
2018-01-13T07:28:53.678Z,4.80
2018-01-13T07:33:55.712Z,4.80
2018-01-13T07:38:57.701Z,4.80
2018-01-13T07:43:59.158Z,4.80
2018-01-13T07:49:00.546Z,4.80
2018-01-13T07:54:08.780Z,4.80
2018-01-13T07:59:10.019Z,4.80
2018-01-13T08:04:11.319Z,4.90
2018-01-13T08:09:12.537Z,4.90
2018-01-13T08:14:13.714Z,4.90
2018-01-13T08:19:16.543Z,4.90
2018-01-13T08:24:17.955Z,4.90
2018-01-13T08:29:19.372Z,4.90
2018-01-13T08:34:20.722Z,4.90
2018-01-13T08:39:22.082Z,5.00
2018-01-13T08:44:24.073Z,5.40
2018-01-13T08:49:25.427Z,5.40
2018-01-13T08:54:26.608Z,5.30
2018-01-13T08:59:27.897Z,5.40
2018-01-13T09:04:29.436Z,5.40
2018-01-13T09:09:31.171Z,5.50
2018-01-13T09:14:32.526Z,5.60
2018-01-13T09:19:34.378Z,5.80
2018-01-13T09:24:35.562Z,5.90
2018-01-13T09:29:37.081Z,5.90
2018-01-13T09:34:39.156Z,6.10
2018-01-13T09:39:40.424Z,6.00
2018-01-13T09:44:41.711Z,6.30
2018-01-13T09:49:44.270Z,6.30
2018-01-13T09:54:51.887Z,6.20
2018-01-13T09:59:53.112Z,6.10
2018-01-13T10:04:54.342Z,6.20
2018-01-13T10:09:55.350Z,6.40
2018-01-13T10:14:56.380Z,8.40
2018-01-13T10:19:57.390Z,7.80
2018-01-13T10:24:58.394Z,9.70
2018-01-13T10:29:59.386Z,10.00
2018-01-13T10:35:00.401Z,9.30
2018-01-13T10:40:01.414Z,9.00
2018-01-13T10:45:09.771Z,8.60
2018-01-13T10:50:10.795Z,8.40
2018-01-13T10:55:12.866Z,8.70
2018-01-13T11:00:13.891Z,8.60
2018-01-13T11:05:15.186Z,8.20
2018-01-13T11:10:16.358Z,8.00
2018-01-13T11:15:17.630Z,7.90
2018-01-13T11:20:19.128Z,7.40
2018-01-13T11:25:20.629Z,7.40
2018-01-13T11:30:28.642Z,7.50
2018-01-13T11:35:29.870Z,7.40
2018-01-13T11:40:31.806Z,7.20
2018-01-13T11:45:33.922Z,7.40
2018-01-13T11:50:35.654Z,7.30
2018-01-13T11:55:36.931Z,7.40
2018-01-13T12:00:38.168Z,7.40
2018-01-13T12:05:40.277Z,7.10
2018-01-13T12:10:43.002Z,7.10
2018-01-13T12:15:44.203Z,7.00
2018-01-13T12:20:45.497Z,7.10
2018-01-13T12:25:46.754Z,7.10
2018-01-13T12:30:48.529Z,7.10
2018-01-13T12:35:50.606Z,7.10
2018-01-13T12:40:51.879Z,7.10
2018-01-13T12:45:53.459Z,7.10
2018-01-13T12:50:54.702Z,7.10
2018-01-13T12:55:55.698Z,7.00
2018-01-13T13:00:56.691Z,6.90
2018-01-13T13:05:57.694Z,6.80
2018-01-13T13:10:59.432Z,6.90
2018-01-13T13:16:00.435Z,6.80
2018-01-13T13:21:01.432Z,6.90
2018-01-13T13:26:02.908Z,6.90
2018-01-13T13:31:04.395Z,6.90
2018-01-13T13:36:06.286Z,6.80
2018-01-13T13:41:07.835Z,6.80
2018-01-13T13:46:09.114Z,6.80
2018-01-13T13:51:11.203Z,6.60
2018-01-13T13:56:13.363Z,6.60
2018-01-13T14:01:28.507Z,6.60
2018-01-13T14:06:19.875Z,6.60
2018-01-13T14:11:21.134Z,6.60
2018-01-13T14:16:22.446Z,6.70
2018-01-13T14:21:23.605Z,6.60
2018-01-13T14:26:25.862Z,6.70
2018-01-13T14:31:27.471Z,6.60
2018-01-13T14:36:29.428Z,6.90
2018-01-13T14:41:31.333Z,7.80
2018-01-13T14:46:32.650Z,7.70
2018-01-13T14:51:34.245Z,6.70
2018-01-13T14:56:35.452Z,6.60
2018-01-13T15:01:36.827Z,6.50
2018-01-13T15:06:38.085Z,6.40
2018-01-13T15:11:39.809Z,6.40
2018-01-13T15:16:41.211Z,6.40
2018-01-13T15:21:43.433Z,6.30
2018-01-13T15:26:44.736Z,6.30
2018-01-13T15:31:46.103Z,6.20
2018-01-13T15:36:47.503Z,6.30
2018-01-13T15:41:49.757Z,6.20
2018-01-13T15:46:51.097Z,6.20
2018-01-13T15:51:53.352Z,6.20
2018-01-13T15:56:54.910Z,6.20
2018-01-13T16:01:56.346Z,6.20
2018-01-13T16:06:57.644Z,6.20
2018-01-13T16:11:59.104Z,6.10
2018-01-13T16:17:01.255Z,6.10
2018-01-13T16:22:03.459Z,6.10
2018-01-13T16:27:04.855Z,6.10
2018-01-13T16:32:06.604Z,6.10
2018-01-13T16:37:07.807Z,6.10
2018-01-13T16:42:09.086Z,6.10
2018-01-13T16:47:10.506Z,6.10
2018-01-13T16:52:12.336Z,6.10
2018-01-13T16:57:14.398Z,6.00
2018-01-13T17:02:15.664Z,5.90
2018-01-13T17:07:17.067Z,6.00
2018-01-13T17:12:18.328Z,6.00
2018-01-13T17:17:19.838Z,5.90
2018-01-13T17:22:21.216Z,6.00
2018-01-13T17:27:25.300Z,5.90
2018-01-13T17:32:26.556Z,5.90
2018-01-13T17:37:27.800Z,5.90
2018-01-13T17:42:29.627Z,5.90
2018-01-13T17:47:31.465Z,5.80
2018-01-13T17:52:32.701Z,5.80
2018-01-13T17:57:33.694Z,5.80
2018-01-13T18:02:35.439Z,5.80
2018-01-13T18:07:36.766Z,5.70
2018-01-13T18:12:37.848Z,5.80
2018-01-13T18:17:39.008Z,5.70
2018-01-13T18:22:40.398Z,5.80
2018-01-13T18:27:41.645Z,5.70
2018-01-13T18:32:42.719Z,5.70
2018-01-13T18:37:44.764Z,5.70
2018-01-13T18:42:46.239Z,5.60
2018-01-13T18:47:47.296Z,5.60
2018-01-13T18:52:48.654Z,5.60
2018-01-13T18:57:50.604Z,5.60
2018-01-13T19:02:52.521Z,5.60
2018-01-13T19:07:53.751Z,5.50
2018-01-13T19:12:54.754Z,5.50
2018-01-13T19:17:56.026Z,5.60
2018-01-13T19:22:57.051Z,5.40
2018-01-13T19:27:59.018Z,5.60
2018-01-13T19:33:00.037Z,5.50
2018-01-13T19:38:01.775Z,5.60
2018-01-13T19:43:03.588Z,5.50
2018-01-13T19:48:05.126Z,5.50
2018-01-13T19:53:07.439Z,5.50
2018-01-13T19:58:08.586Z,5.40
2018-01-13T20:03:09.635Z,5.50
2018-01-13T20:08:11.955Z,5.40
2018-01-13T20:13:13.044Z,5.40
2018-01-13T20:18:14.443Z,5.40
2018-01-13T20:23:16.425Z,5.40
2018-01-13T20:28:17.499Z,5.30
2018-01-13T20:33:18.571Z,5.40
2018-01-13T20:38:19.814Z,5.40
2018-01-13T20:43:22.150Z,5.40
2018-01-13T20:48:23.684Z,5.30
2018-01-13T20:53:25.466Z,5.40
2018-01-13T20:58:26.986Z,5.40
2018-01-13T21:03:28.327Z,5.20
2018-01-13T21:08:29.876Z,5.30
2018-01-13T21:13:31.275Z,5.30
2018-01-13T21:18:32.588Z,5.30
2018-01-13T21:23:35.274Z,5.10
2018-01-13T21:28:36.664Z,5.10
2018-01-13T21:33:38.694Z,5.20
2018-01-13T21:38:39.904Z,5.20
2018-01-13T21:43:41.307Z,5.20
2018-01-13T21:48:43.404Z,5.20
2018-01-13T21:53:45.467Z,5.10
2018-01-13T21:58:46.850Z,5.10
2018-01-13T22:03:47.923Z,5.20
2018-01-13T22:08:49.298Z,5.20
2018-01-13T22:13:50.306Z,5.20
2018-01-13T22:18:51.361Z,5.20
2018-01-13T22:23:52.378Z,5.10
2018-01-13T22:28:53.387Z,5.20
2018-01-13T22:33:54.394Z,5.10
2018-01-13T22:38:56.391Z,5.10
2018-01-13T22:43:58.151Z,5.10
2018-01-13T22:48:59.363Z,5.00
2018-01-13T22:54:02.955Z,5.00
2018-01-13T22:59:04.367Z,5.00
2018-01-13T23:04:05.454Z,5.00
2018-01-13T23:09:06.515Z,4.90
2018-01-13T23:14:07.550Z,4.90
2018-01-13T23:19:08.839Z,4.90
2018-01-13T23:24:09.854Z,4.80
2018-01-13T23:29:11.827Z,4.80
2018-01-13T23:34:12.860Z,4.80
2018-01-13T23:39:13.867Z,4.80
2018-01-13T23:44:14.931Z,4.80
2018-01-13T23:49:15.978Z,4.80
2018-01-13T23:54:17.247Z,4.70
2018-01-13T23:59:18.306Z,4.70
